createdAt,value
2022-09-27T00:01:38.453Z,14.40
2022-09-27T00:04:07.069Z,13.02
2022-09-27T00:06:39.944Z,13.02
2022-09-27T00:09:10.254Z,12.70
2022-09-27T00:11:42.750Z,13.88
2022-09-27T00:14:13.722Z,9.33
2022-09-27T00:16:43.378Z,9.20
2022-09-27T00:19:17.786Z,7.03
2022-09-27T00:21:46.627Z,7.47
2022-09-27T00:24:17.390Z,8.05
2022-09-27T00:26:47.242Z,9.43
2022-09-27T00:29:17.901Z,9.43
2022-09-27T00:31:46.585Z,17.83
2022-09-27T00:34:23.532Z,19.42
2022-09-27T00:36:53.068Z,21.70
2022-09-27T00:39:22.087Z,22.20
2022-09-27T00:41:50.213Z,21.70
2022-09-27T00:44:33.661Z,21.10
2022-09-27T00:47:20.245Z,23.10
2022-09-27T00:49:54.408Z,23.55
2022-09-27T00:52:26.267Z,22.98
2022-09-27T00:55:01.458Z,15.10
2022-09-27T00:57:31.658Z,24.92
2022-09-27T01:00:09.747Z,13.20
2022-09-27T01:02:44.291Z,14.02
2022-09-27T01:05:16.154Z,16.55
2022-09-27T01:07:44.646Z,16.30
2022-09-27T01:10:47.282Z,15.82
2022-09-27T01:13:36.209Z,14.38
2022-09-27T01:16:16.581Z,15.23
2022-09-27T01:18:56.491Z,16.58
2022-09-27T01:21:38.055Z,36.40
2022-09-27T01:24:38.140Z,27.48
2022-09-27T01:27:06.679Z,49.38
2022-09-27T01:29:50.383Z,36.72
2022-09-27T01:32:41.272Z,27.15
2022-09-27T01:35:59.485Z,25.80
2022-09-27T01:38:38.496Z,19.70
2022-09-27T01:41:18.510Z,21.20
2022-09-27T01:44:29.164Z,21.48
2022-09-27T01:47:13.190Z,37.10
2022-09-27T01:50:12.056Z,26.95
2022-09-27T01:52:51.147Z,17.30
2022-09-27T01:55:24.467Z,35.65
2022-09-27T01:58:19.326Z,27.73
2022-09-27T02:00:53.419Z,29.73
2022-09-27T02:03:28.563Z,27.13
2022-09-27T02:07:09.035Z,15.25
2022-09-27T02:09:47.890Z,19.55
2022-09-27T02:12:27.759Z,41.70
2022-09-27T02:15:16.783Z,27.98
2022-09-27T02:18:09.110Z,28.27
2022-09-27T02:20:46.369Z,21.65
2022-09-27T02:24:01.776Z,26.92
2022-09-27T02:26:44.304Z,30.27
2022-09-27T02:29:21.173Z,25.17
2022-09-27T02:31:53.404Z,24.60
2022-09-27T02:34:26.209Z,22.42
2022-09-27T02:36:55.667Z,18.25
2022-09-27T02:39:24.676Z,23.23
2022-09-27T02:42:03.024Z,21.90
2022-09-27T02:44:32.386Z,22.88
2022-09-27T02:47:46.218Z,20.73
2022-09-27T02:50:33.510Z,23.80
2022-09-27T02:53:53.889Z,19.42
2022-09-27T02:57:17.897Z,18.23
2022-09-27T03:00:20.735Z,16.48
2022-09-27T03:03:18.114Z,16.40
2022-09-27T03:06:02.734Z,12.13
2022-09-27T03:08:31.331Z,14.75
2022-09-27T03:10:59.792Z,11.73
2022-09-27T03:13:28.511Z,17.58
2022-09-27T03:16:01.566Z,26.58
2022-09-27T03:19:33.851Z,17.70
2022-09-27T03:22:27.782Z,13.65
2022-09-27T03:24:56.659Z,13.70
2022-09-27T03:27:25.278Z,14.23
2022-09-27T03:29:53.379Z,14.23
2022-09-27T03:32:21.405Z,16.10
2022-09-27T03:35:19.365Z,13.95
2022-09-27T03:37:48.619Z,13.18
2022-09-27T03:40:16.742Z,14.05
2022-09-27T03:42:49.477Z,15.10
2022-09-27T03:45:18.858Z,26.08
2022-09-27T03:47:48.364Z,16.00
2022-09-27T03:50:16.679Z,21.08
2022-09-27T03:52:45.010Z,38.10
2022-09-27T03:55:14.644Z,41.67
2022-09-27T03:57:46.964Z,35.58
2022-09-27T04:00:18.053Z,26.20
2022-09-27T04:02:46.643Z,37.22
2022-09-27T04:05:26.812Z,27.15
2022-09-27T04:08:01.637Z,23.40
2022-09-27T04:10:33.519Z,23.48
2022-09-27T04:13:02.895Z,28.77
2022-09-27T04:15:37.313Z,24.20
2022-09-27T04:18:24.470Z,25.35
2022-09-27T04:21:11.318Z,23.13
2022-09-27T04:23:46.863Z,25.42
2022-09-27T04:26:18.545Z,24.38
2022-09-27T04:28:54.451Z,24.23
2022-09-27T04:31:24.602Z,20.83
2022-09-27T04:34:01.582Z,27.67
2022-09-27T04:36:34.791Z,28.60
2022-09-27T04:39:23.460Z,22.65
2022-09-27T04:41:52.347Z,22.85
2022-09-27T04:44:20.358Z,33.63
2022-09-27T04:46:51.894Z,29.90
2022-09-27T04:49:20.019Z,21.55
2022-09-27T04:51:49.076Z,23.58
2022-09-27T04:54:17.800Z,29.60
2022-09-27T04:56:54.469Z,22.08
2022-09-27T04:59:23.279Z,15.10
2022-09-27T05:01:52.595Z,16.98
2022-09-27T05:04:49.317Z,19.25
2022-09-27T05:07:20.378Z,15.68
2022-09-27T05:09:56.029Z,24.17
2022-09-27T05:12:26.980Z,17.75
2022-09-27T05:15:00.643Z,25.52
2022-09-27T05:17:46.993Z,30.08
2022-09-27T05:20:51.110Z,33.65
2022-09-27T05:23:27.402Z,24.88
2022-09-27T05:25:57.467Z,24.25
2022-09-27T05:28:25.684Z,24.88
2022-09-27T05:30:53.690Z,16.08
2022-09-27T05:33:22.863Z,19.63
2022-09-27T05:35:55.895Z,23.23
2022-09-27T05:38:28.726Z,25.52
2022-09-27T05:40:59.850Z,21.75
2022-09-27T05:43:29.016Z,21.38
2022-09-27T05:46:00.991Z,20.33
2022-09-27T05:48:30.713Z,13.05
2022-09-27T05:51:06.493Z,12.55
2022-09-27T05:53:38.038Z,12.23
2022-09-27T05:56:09.126Z,17.33
2022-09-27T05:58:55.256Z,15.50
2022-09-27T06:01:26.913Z,16.65
2022-09-27T06:04:14.116Z,15.38
2022-09-27T06:07:08.376Z,15.57
2022-09-27T06:09:36.652Z,16.60
2022-09-27T06:12:04.631Z,19.10
2022-09-27T06:14:35.098Z,15.90
2022-09-27T06:17:10.538Z,6.50
2022-09-27T06:19:43.104Z,8.68
2022-09-27T06:22:11.382Z,6.47
2022-09-27T06:24:49.960Z,6.15
2022-09-27T06:27:22.879Z,7.95
2022-09-27T06:30:01.461Z,6.60
2022-09-27T06:33:03.182Z,5.80
2022-09-27T06:35:50.795Z,6.63
2022-09-27T06:38:21.705Z,6.32
2022-09-27T06:41:06.746Z,5.60
2022-09-27T06:43:52.256Z,5.00
2022-09-27T06:46:40.761Z,4.07
2022-09-27T06:49:27.241Z,4.15
2022-09-27T06:51:56.818Z,4.20
2022-09-27T06:54:25.715Z,3.88
2022-09-27T06:56:56.994Z,4.15
2022-09-27T06:59:46.933Z,4.00
2022-09-27T07:02:34.133Z,4.00
2022-09-27T07:05:21.931Z,4.05
2022-09-27T07:08:12.939Z,4.93
2022-09-27T07:10:41.654Z,4.25
2022-09-27T07:13:11.564Z,3.78
2022-09-27T07:15:42.470Z,4.32
2022-09-27T07:18:15.317Z,3.63
2022-09-27T07:20:44.195Z,3.40
2022-09-27T07:23:14.279Z,3.10
2022-09-27T07:25:42.902Z,3.10
2022-09-27T07:28:36.621Z,3.00
2022-09-27T07:31:06.070Z,2.97
2022-09-27T07:33:34.147Z,2.33
2022-09-27T07:36:11.565Z,3.00
2022-09-27T07:38:42.522Z,3.55
2022-09-27T07:41:16.094Z,2.97
2022-09-27T07:43:45.651Z,3.95
2022-09-27T07:46:15.342Z,2.90
2022-09-27T07:48:52.537Z,3.20
2022-09-27T07:51:39.487Z,2.70
2022-09-27T07:54:30.604Z,2.80
2022-09-27T07:59:48.841Z,3.28
2022-09-27T08:02:21.138Z,2.63
2022-09-27T08:04:51.599Z,2.95
2022-09-27T08:07:21.082Z,2.55
2022-09-27T08:12:22.500Z,2.70
2022-09-27T08:14:52.239Z,2.53
2022-09-27T08:17:20.925Z,2.63
2022-09-27T08:20:21.612Z,2.65
2022-09-27T08:23:08.313Z,2.45
2022-09-27T08:25:40.188Z,2.70
2022-09-27T08:28:27.951Z,2.28
2022-09-27T08:31:04.891Z,2.55
2022-09-27T08:33:39.107Z,3.05
2022-09-27T08:36:13.306Z,2.53
2022-09-27T08:38:43.156Z,2.55
2022-09-27T08:41:40.813Z,3.55
2022-09-27T08:44:28.670Z,2.58
2022-09-27T08:47:15.356Z,3.53
2022-09-27T08:50:27.819Z,3.10
2022-09-27T08:52:59.428Z,2.85
2022-09-27T08:55:49.525Z,2.63
2022-09-27T08:58:52.902Z,2.42
2022-09-27T09:01:36.206Z,2.50
2022-09-27T09:04:12.842Z,3.00
2022-09-27T09:06:56.016Z,2.65
2022-09-27T09:10:09.669Z,2.80
2022-09-27T09:12:59.971Z,2.92
2022-09-27T09:16:06.879Z,2.97
2022-09-27T09:19:06.408Z,2.65
2022-09-27T09:21:42.931Z,3.05
2022-09-27T09:24:35.260Z,2.88
2022-09-27T09:27:40.233Z,3.17
2022-09-27T09:30:22.809Z,2.83
2022-09-27T09:33:15.999Z,2.40
2022-09-27T09:36:12.606Z,3.55
2022-09-27T09:38:58.118Z,3.45
2022-09-27T09:41:43.461Z,3.30
2022-09-27T09:44:27.770Z,3.22
2022-09-27T09:47:00.706Z,3.05
2022-09-27T09:49:40.626Z,2.53
2022-09-27T09:52:32.836Z,3.35
2022-09-27T09:55:14.076Z,3.40
2022-09-27T09:58:06.378Z,3.63
2022-09-27T10:00:45.066Z,3.45
2022-09-27T10:03:14.027Z,2.90
2022-09-27T10:05:44.571Z,2.30
2022-09-27T10:08:20.758Z,2.45
2022-09-27T10:13:50.183Z,2.58
2022-09-27T10:16:20.866Z,2.95
2022-09-27T10:18:51.869Z,2.60
2022-09-27T10:21:27.871Z,3.03
2022-09-27T10:24:12.392Z,2.47
2022-09-27T10:27:04.206Z,2.90
2022-09-27T10:29:38.376Z,2.70
2022-09-27T10:32:23.871Z,3.35
2022-09-27T10:35:22.826Z,3.65
2022-09-27T10:38:17.361Z,2.65
2022-09-27T10:40:46.736Z,3.05
2022-09-27T10:43:29.854Z,3.33
2022-09-27T10:46:09.749Z,3.03
2022-09-27T10:48:41.858Z,2.47
2022-09-27T10:51:30.959Z,2.88
2022-09-27T10:54:01.612Z,2.92
2022-09-27T10:56:36.158Z,3.05
2022-09-27T10:59:06.318Z,2.70
2022-09-27T11:01:48.550Z,2.30
2022-09-27T11:04:30.477Z,3.78
2022-09-27T11:07:20.234Z,2.80
2022-09-27T11:10:04.199Z,3.05
2022-09-27T11:12:36.804Z,3.35
2022-09-27T11:15:14.878Z,2.28
2022-09-27T11:18:03.760Z,2.33
2022-09-27T11:20:46.865Z,2.40
2022-09-27T11:23:43.531Z,2.80
2022-09-27T11:26:54.551Z,3.15
2022-09-27T11:29:50.919Z,2.42
2022-09-27T11:33:10.053Z,2.53
2022-09-27T11:36:18.146Z,2.83
2022-09-27T11:39:18.328Z,3.33
2022-09-27T11:41:54.200Z,2.95
2022-09-27T11:44:47.665Z,3.85
2022-09-27T11:50:43.709Z,3.22
2022-09-27T11:53:19.073Z,2.40
2022-09-27T11:56:11.230Z,2.55
2022-09-27T11:59:01.211Z,2.97
2022-09-27T12:01:55.080Z,2.30
2022-09-27T12:04:44.312Z,2.53
2022-09-27T12:07:35.630Z,2.92
2022-09-27T12:10:14.030Z,2.92
2022-09-27T12:12:46.026Z,2.63
2022-09-27T12:15:36.478Z,2.25
2022-09-27T12:18:32.339Z,2.80
2022-09-27T12:21:08.236Z,3.40
2022-09-27T12:24:09.377Z,2.25
2022-09-27T12:26:54.211Z,2.95
2022-09-27T12:29:34.160Z,2.30
2022-09-27T12:32:16.355Z,2.60
2022-09-27T12:35:03.715Z,2.28
2022-09-27T12:37:42.771Z,2.22
2022-09-27T12:40:17.278Z,2.85
2022-09-27T12:43:01.004Z,2.00
2022-09-27T12:46:07.648Z,2.47
2022-09-27T12:48:54.974Z,2.97
2022-09-27T12:51:25.350Z,2.90
2022-09-27T12:54:25.721Z,2.33
2022-09-27T12:57:18.517Z,3.30
2022-09-27T13:00:00.293Z,2.17
2022-09-27T13:03:20.493Z,2.13
2022-09-27T13:06:39.386Z,2.13
2022-09-27T13:09:11.699Z,2.67
2022-09-27T13:11:58.126Z,2.60
2022-09-27T13:14:30.379Z,2.80
2022-09-27T13:16:58.980Z,1.90
2022-09-27T13:20:31.221Z,2.97
2022-09-27T13:23:02.498Z,2.35
2022-09-27T13:25:59.850Z,2.58
2022-09-27T13:28:51.906Z,2.75
2022-09-27T13:32:00.071Z,3.03
2022-09-27T13:34:57.308Z,2.70
2022-09-27T13:37:40.202Z,2.90
2022-09-27T13:40:24.535Z,2.63
2022-09-27T13:43:42.167Z,2.90
2022-09-27T13:46:37.246Z,2.45
2022-09-27T13:49:16.805Z,2.30
2022-09-27T13:52:25.317Z,2.63
2022-09-27T13:58:00.473Z,3.30
2022-09-27T14:00:44.228Z,3.05
2022-09-27T14:03:12.457Z,2.22
2022-09-27T14:05:50.791Z,2.50
2022-09-27T14:08:48.485Z,2.20
2022-09-27T14:11:28.376Z,2.85
2022-09-27T14:13:58.985Z,2.33
2022-09-27T14:16:35.944Z,2.50
2022-09-27T14:19:04.350Z,2.45
2022-09-27T14:21:40.776Z,2.40
2022-09-27T14:24:37.145Z,2.13
2022-09-27T14:27:22.008Z,2.67
2022-09-27T14:30:22.784Z,4.05
2022-09-27T14:33:01.733Z,2.45
2022-09-27T14:36:10.980Z,3.22
2022-09-27T14:38:42.291Z,2.13
2022-09-27T14:41:37.554Z,2.38
2022-09-27T14:44:17.513Z,3.13
2022-09-27T14:46:46.772Z,1.92
2022-09-27T14:49:21.449Z,1.90
2022-09-27T14:51:55.244Z,2.40
2022-09-27T14:54:30.568Z,4.30
2022-09-27T14:57:00.382Z,2.33
2022-09-27T14:59:34.867Z,2.72
2022-09-27T15:02:18.210Z,2.75
2022-09-27T15:04:52.481Z,2.30
2022-09-27T15:07:22.877Z,2.20
2022-09-27T15:09:52.031Z,2.70
2022-09-27T15:12:28.607Z,2.50
2022-09-27T15:15:03.800Z,2.78
2022-09-27T15:17:44.115Z,2.40
2022-09-27T15:20:31.024Z,3.65
2022-09-27T15:23:05.031Z,2.55
2022-09-27T15:25:42.315Z,2.35
2022-09-27T15:28:11.350Z,2.83
2022-09-27T15:30:41.439Z,2.90
2022-09-27T15:33:26.752Z,3.13
2022-09-27T15:36:03.732Z,3.05
2022-09-27T15:38:48.954Z,3.00
2022-09-27T15:41:20.386Z,2.80
2022-09-27T15:43:53.140Z,2.58
2022-09-27T15:46:28.493Z,3.13
2022-09-27T15:49:18.108Z,2.92
2022-09-27T15:51:52.240Z,3.45
2022-09-27T15:54:27.197Z,2.78
2022-09-27T15:56:56.789Z,3.90
2022-09-27T15:59:30.337Z,3.30
2022-09-27T16:02:05.585Z,3.67
2022-09-27T16:04:36.230Z,3.33
2022-09-27T16:07:09.137Z,2.63
2022-09-27T16:09:38.738Z,2.95
2022-09-27T16:12:07.474Z,3.03
2022-09-27T16:14:35.404Z,2.30
2022-09-27T16:17:03.816Z,2.72
2022-09-27T16:19:31.888Z,3.50
2022-09-27T16:22:03.570Z,2.67
2022-09-27T16:24:32.539Z,2.63
2022-09-27T16:27:00.599Z,3.30
2022-09-27T16:29:29.159Z,2.15
2022-09-27T16:31:58.026Z,2.97
2022-09-27T16:34:26.120Z,3.53
2022-09-27T16:36:54.086Z,2.75
2022-09-27T16:39:22.629Z,3.40
2022-09-27T16:41:53.862Z,3.95
2022-09-27T16:44:22.840Z,3.13
2022-09-27T16:46:51.652Z,3.30
2022-09-27T16:49:38.473Z,2.80
2022-09-27T16:52:06.464Z,2.80
2022-09-27T16:54:41.183Z,3.10
2022-09-27T16:57:10.319Z,3.80
2022-09-27T16:59:39.428Z,3.78
2022-09-27T17:02:07.879Z,3.38
2022-09-27T17:04:37.126Z,4.75
2022-09-27T17:07:05.116Z,3.20
2022-09-27T17:09:33.302Z,3.63
2022-09-27T17:12:01.929Z,3.10
2022-09-27T17:14:32.310Z,2.80
2022-09-27T17:17:01.554Z,3.03
2022-09-27T17:19:29.847Z,4.43
2022-09-27T17:21:57.829Z,3.40
2022-09-27T17:24:26.094Z,3.55
2022-09-27T17:26:55.477Z,3.28
2022-09-27T17:29:23.464Z,3.90
2022-09-27T17:31:52.127Z,4.10
2022-09-27T17:34:20.762Z,3.60
2022-09-27T17:36:50.484Z,3.10
2022-09-27T17:39:22.586Z,4.90
2022-09-27T17:41:51.282Z,3.80
2022-09-27T17:44:19.990Z,4.38
2022-09-27T17:47:09.166Z,3.95
2022-09-27T17:49:56.199Z,3.65
2022-09-27T17:52:26.737Z,4.07
2022-09-27T17:54:57.592Z,4.60
2022-09-27T17:57:26.111Z,4.30
2022-09-27T17:59:54.207Z,4.65
2022-09-27T18:02:23.394Z,6.43
2022-09-27T18:04:52.147Z,5.47
2022-09-27T18:07:20.138Z,5.18
2022-09-27T18:09:48.344Z,5.00
2022-09-27T18:12:16.848Z,5.07
2022-09-27T18:14:45.907Z,5.25
2022-09-27T18:17:15.217Z,7.22
2022-09-27T18:19:43.675Z,8.27
2022-09-27T18:22:12.109Z,11.23
2022-09-27T18:24:40.457Z,11.70
2022-09-27T18:27:08.912Z,10.88
2022-09-27T18:29:37.143Z,9.65
2022-09-27T18:32:05.005Z,9.52
2022-09-27T18:34:33.619Z,8.55
2022-09-27T18:37:02.149Z,8.50
2022-09-27T18:39:31.201Z,8.57
2022-09-27T18:41:59.386Z,9.98
2022-09-27T18:44:27.343Z,10.65
2022-09-27T18:46:55.803Z,11.45
2022-09-27T18:49:27.675Z,9.88
2022-09-27T18:51:57.379Z,10.70
2022-09-27T18:54:25.901Z,7.03
2022-09-27T18:56:53.848Z,8.98
2022-09-27T18:59:24.089Z,12.45
2022-09-27T19:01:53.053Z,12.75
2022-09-27T19:04:24.957Z,8.95
2022-09-27T19:06:54.578Z,10.55
2022-09-27T19:09:23.130Z,9.88
2022-09-27T19:11:51.152Z,10.15
2022-09-27T19:14:22.468Z,10.85
2022-09-27T19:16:51.307Z,9.70
2022-09-27T19:19:20.844Z,7.60
2022-09-27T19:21:49.192Z,9.77
2022-09-27T19:24:19.010Z,11.30
2022-09-27T19:26:47.268Z,8.77
2022-09-27T19:29:16.422Z,9.32
2022-09-27T19:31:44.984Z,7.93
2022-09-27T19:34:13.326Z,6.78
2022-09-27T19:36:41.532Z,8.18
2022-09-27T19:39:09.578Z,8.07
2022-09-27T19:41:38.721Z,9.45
2022-09-27T19:44:06.939Z,6.38
2022-09-27T19:46:35.390Z,6.30
2022-09-27T19:49:04.027Z,5.88
2022-09-27T19:51:32.551Z,7.20
2022-09-27T19:54:00.922Z,7.38
2022-09-27T19:56:29.298Z,6.47
2022-09-27T19:58:57.304Z,8.25
2022-09-27T20:01:26.817Z,8.38
2022-09-27T20:03:56.000Z,8.50
2022-09-27T20:06:24.171Z,8.73
2022-09-27T20:08:52.611Z,10.20
2022-09-27T20:11:23.339Z,11.23
2022-09-27T20:13:55.322Z,12.55
2022-09-27T20:16:25.460Z,14.05
2022-09-27T20:18:55.990Z,15.02
2022-09-27T20:21:32.797Z,16.00
2022-09-27T20:24:03.413Z,13.98
2022-09-27T20:26:34.741Z,14.60
2022-09-27T20:29:04.467Z,15.35
2022-09-27T20:31:36.936Z,14.05
2022-09-27T20:34:12.357Z,14.85
2022-09-27T20:36:44.130Z,13.02
2022-09-27T20:39:14.258Z,15.07
2022-09-27T20:41:45.890Z,16.08
2022-09-27T20:44:16.958Z,16.08
2022-09-27T20:46:46.977Z,15.82
2022-09-27T20:49:18.718Z,17.08
2022-09-27T20:51:48.613Z,17.40
2022-09-27T20:54:16.604Z,16.52
2022-09-27T20:56:46.762Z,15.85
2022-09-27T20:59:20.659Z,17.80
2022-09-27T21:01:50.808Z,14.45
2022-09-27T21:04:19.961Z,12.85
2022-09-27T21:06:48.062Z,12.88
2022-09-27T21:09:19.928Z,11.73
2022-09-27T21:11:49.589Z,13.02
2022-09-27T21:14:18.270Z,13.43
2022-09-27T21:16:46.305Z,12.82
2022-09-27T21:19:14.417Z,11.95
2022-09-27T21:21:43.422Z,11.00
2022-09-27T21:24:11.832Z,12.18
2022-09-27T21:26:39.927Z,13.75
2022-09-27T21:29:09.540Z,15.75
2022-09-27T21:31:38.899Z,15.40
2022-09-27T21:34:07.107Z,14.88
2022-09-27T21:36:39.511Z,13.73
2022-09-27T21:39:09.145Z,13.93
2022-09-27T21:41:39.107Z,15.63
2022-09-27T21:44:08.865Z,15.00
2022-09-27T21:46:40.104Z,14.95
2022-09-27T21:49:08.774Z,15.48
2022-09-27T21:51:42.281Z,12.60
2022-09-27T21:54:17.210Z,10.25
2022-09-27T21:56:45.878Z,9.30
2022-09-27T21:59:16.175Z,9.23
2022-09-27T22:01:46.261Z,10.27
2022-09-27T22:04:15.062Z,9.10
2022-09-27T22:06:43.126Z,10.93
2022-09-27T22:09:17.368Z,10.35
2022-09-27T22:11:47.638Z,11.25
2022-09-27T22:14:18.914Z,9.88
2022-09-27T22:16:47.621Z,9.93
2022-09-27T22:19:16.236Z,9.70
2022-09-27T22:21:44.905Z,9.98
2022-09-27T22:24:16.725Z,9.32
2022-09-27T22:26:50.396Z,8.88
2022-09-27T22:29:19.218Z,8.73
2022-09-27T22:31:47.885Z,6.80
2022-09-27T22:34:18.931Z,7.45
2022-09-27T22:36:47.089Z,6.30
2022-09-27T22:39:16.155Z,6.63
2022-09-27T22:41:44.454Z,5.82
2022-09-27T22:44:12.409Z,5.75
2022-09-27T22:46:40.409Z,6.00
2022-09-27T22:49:09.343Z,5.72
2022-09-27T22:51:38.193Z,6.07
2022-09-27T22:54:06.426Z,5.60
2022-09-27T22:56:34.453Z,5.57
2022-09-27T22:59:02.949Z,5.35
2022-09-27T23:01:31.597Z,6.05
2022-09-27T23:03:59.850Z,5.43
2022-09-27T23:06:28.445Z,5.88
2022-09-27T23:08:58.271Z,7.60
2022-09-27T23:11:26.251Z,6.90
2022-09-27T23:13:54.524Z,7.30
2022-09-27T23:16:26.486Z,7.85
2022-09-27T23:18:56.959Z,6.20
2022-09-27T23:21:26.426Z,6.68
2022-09-27T23:23:57.240Z,6.95
2022-09-27T23:26:27.426Z,6.53
2022-09-27T23:28:58.422Z,5.65
2022-09-27T23:31:29.857Z,4.72
2022-09-27T23:34:01.655Z,5.28
2022-09-27T23:36:30.420Z,5.30
2022-09-27T23:39:01.333Z,6.63
2022-09-27T23:41:29.909Z,6.70
2022-09-27T23:43:58.143Z,5.28
2022-09-27T23:46:26.678Z,5.60
2022-09-27T23:48:58.913Z,5.57
2022-09-27T23:51:27.592Z,5.40
2022-09-27T23:53:57.232Z,4.93
2022-09-27T23:56:26.533Z,6.45
2022-09-27T23:58:54.607Z,4.70
